createdAt,value
2018-12-31T00:01:23.980Z,21.10
2018-12-31T00:03:53.545Z,28.90
2018-12-31T00:06:23.243Z,21.73
2018-12-31T00:08:54.651Z,20.47
2018-12-31T00:11:25.496Z,16.23
2018-12-31T00:13:55.340Z,22.70
2018-12-31T00:16:25.006Z,21.43
2018-12-31T00:18:56.348Z,22.27
2018-12-31T00:21:27.803Z,22.13
2018-12-31T00:23:59.057Z,24.30
2018-12-31T00:26:30.501Z,21.53
2018-12-31T00:29:01.882Z,26.60
2018-12-31T00:31:31.699Z,18.80
2018-12-31T00:34:01.411Z,28.43
2018-12-31T00:36:31.147Z,20.23
2018-12-31T00:39:03.060Z,17.23
2018-12-31T00:41:34.531Z,20.40
2018-12-31T00:44:05.343Z,21.30
2018-12-31T00:46:35.083Z,21.50
2018-12-31T00:49:05.790Z,23.20
2018-12-31T00:51:35.629Z,19.77
2018-12-31T00:54:07.016Z,22.70
2018-12-31T00:56:36.828Z,20.97
2018-12-31T00:59:06.495Z,25.53
2018-12-31T01:01:37.149Z,23.73
2018-12-31T01:04:06.886Z,20.37
2018-12-31T01:06:38.400Z,24.50
2018-12-31T01:09:08.512Z,26.90
2018-12-31T01:11:39.348Z,20.07
2018-12-31T01:14:09.064Z,22.57
2018-12-31T01:16:41.519Z,26.57
2018-12-31T01:19:11.379Z,23.13
2018-12-31T01:21:44.195Z,21.93
2018-12-31T01:24:13.691Z,24.87
2018-12-31T01:26:43.363Z,24.03
2018-12-31T01:29:13.651Z,26.50
2018-12-31T01:31:44.411Z,25.77
2018-12-31T01:34:14.147Z,24.13
2018-12-31T01:36:43.923Z,23.57
2018-12-31T01:39:13.630Z,26.13
2018-12-31T01:41:43.363Z,23.47
2018-12-31T01:44:15.663Z,18.03
2018-12-31T01:46:47.170Z,22.60
2018-12-31T01:49:16.987Z,24.23
2018-12-31T01:51:46.687Z,23.90
2018-12-31T01:54:16.434Z,17.70
2018-12-31T01:56:46.115Z,21.07
2018-12-31T01:59:18.379Z,22.03
2018-12-31T02:01:48.116Z,22.87
2018-12-31T02:04:17.827Z,26.03
2018-12-31T02:06:47.520Z,19.57
2018-12-31T02:09:17.339Z,19.17
2018-12-31T02:11:48.730Z,21.60
2018-12-31T02:14:19.182Z,23.33
2018-12-31T02:16:48.944Z,22.70
2018-12-31T02:19:18.559Z,22.90
2018-12-31T02:21:48.336Z,23.17
2018-12-31T02:24:19.063Z,28.67
2018-12-31T02:26:51.432Z,25.20
2018-12-31T02:29:21.148Z,25.20
2018-12-31T02:31:52.106Z,20.43
2018-12-31T02:34:23.022Z,21.77
2018-12-31T02:36:53.959Z,25.23
2018-12-31T02:39:25.409Z,21.63
2018-12-31T02:41:58.297Z,22.27
2018-12-31T02:44:28.097Z,28.83
2018-12-31T02:46:57.946Z,30.30
2018-12-31T02:49:30.163Z,24.97
2018-12-31T02:52:01.542Z,22.30
2018-12-31T02:54:32.551Z,29.97
2018-12-31T02:57:04.099Z,21.50
2018-12-31T02:59:33.863Z,22.40
2018-12-31T03:02:05.224Z,24.47
2018-12-31T03:04:36.815Z,23.70
2018-12-31T03:07:06.579Z,22.47
2018-12-31T03:09:38.995Z,20.37
2018-12-31T03:12:09.887Z,22.90
2018-12-31T03:14:40.479Z,31.07
2018-12-31T03:17:10.311Z,22.37
2018-12-31T03:19:40.067Z,24.13
2018-12-31T03:22:09.740Z,24.03
2018-12-31T03:24:39.443Z,21.20
2018-12-31T03:27:10.739Z,29.53
2018-12-31T03:29:41.632Z,23.13
2018-12-31T03:32:11.441Z,21.40
2018-12-31T03:34:41.205Z,26.10
2018-12-31T03:37:11.760Z,26.40
2018-12-31T03:39:41.401Z,27.57
2018-12-31T03:42:12.125Z,24.40
2018-12-31T03:44:41.840Z,35.53
2018-12-31T03:47:12.349Z,20.43
2018-12-31T03:49:42.419Z,22.97
2018-12-31T03:52:13.296Z,24.93
2018-12-31T03:54:44.607Z,23.17
2018-12-31T03:57:15.995Z,24.37
2018-12-31T03:59:48.271Z,33.87
2018-12-31T04:02:20.746Z,21.67
2018-12-31T04:04:52.077Z,24.00
2018-12-31T04:07:23.743Z,22.77
2018-12-31T04:09:54.501Z,22.33
2018-12-31T04:12:24.315Z,24.50
2018-12-31T04:14:55.019Z,28.77
2018-12-31T04:17:24.795Z,27.13
2018-12-31T04:19:59.038Z,22.20
2018-12-31T04:22:30.393Z,22.73
2018-12-31T04:25:00.031Z,23.93
2018-12-31T04:27:32.467Z,22.27
2018-12-31T04:30:02.144Z,24.57
2018-12-31T04:32:33.023Z,22.13
2018-12-31T04:35:02.763Z,24.00
2018-12-31T04:37:33.727Z,23.90
2018-12-31T04:40:04.724Z,25.80
2018-12-31T04:42:34.451Z,29.47
2018-12-31T04:45:06.320Z,23.90
2018-12-31T04:47:36.223Z,24.47
2018-12-31T04:50:06.613Z,22.97
2018-12-31T04:52:36.288Z,21.03
2018-12-31T04:55:06.073Z,24.47
2018-12-31T04:57:35.795Z,21.40
2018-12-31T05:00:06.394Z,23.93
2018-12-31T05:02:36.831Z,24.80
2018-12-31T05:05:06.544Z,27.43
2018-12-31T05:07:36.207Z,24.63
2018-12-31T05:10:06.376Z,31.37
2018-12-31T05:12:36.000Z,22.57
2018-12-31T05:15:05.855Z,26.70
2018-12-31T05:17:35.429Z,26.80
2018-12-31T05:20:05.262Z,26.83
2018-12-31T05:22:37.687Z,27.23
2018-12-31T05:25:07.460Z,20.97
2018-12-31T05:27:37.134Z,27.13
2018-12-31T05:30:08.658Z,26.20
2018-12-31T05:32:38.484Z,25.90
2018-12-31T05:35:08.096Z,28.93
2018-12-31T05:37:37.727Z,26.07
2018-12-31T05:40:07.828Z,35.43
2018-12-31T05:42:38.609Z,28.07
2018-12-31T05:45:09.446Z,25.80
2018-12-31T05:47:39.301Z,26.00
2018-12-31T05:50:09.116Z,26.23
2018-12-31T05:52:38.846Z,26.93
2018-12-31T05:55:08.537Z,27.30
2018-12-31T05:57:39.255Z,27.30
2018-12-31T06:00:09.268Z,30.20
2018-12-31T06:02:39.099Z,31.37
2018-12-31T06:05:08.772Z,30.63
2018-12-31T06:07:39.971Z,29.53
2018-12-31T06:10:09.564Z,28.40
2018-12-31T06:12:40.804Z,29.93
2018-12-31T06:15:14.683Z,27.80
2018-12-31T06:17:44.319Z,31.17
2018-12-31T06:20:14.037Z,27.27
2018-12-31T06:22:43.776Z,28.43
2018-12-31T06:25:13.373Z,32.73
2018-12-31T06:27:43.161Z,30.30
2018-12-31T06:30:14.604Z,28.00
2018-12-31T06:32:44.423Z,32.03
2018-12-31T06:35:16.600Z,33.47
2018-12-31T06:37:47.548Z,30.13
2018-12-31T06:40:17.150Z,31.87
2018-12-31T06:42:48.255Z,31.80
2018-12-31T06:45:19.122Z,28.60
2018-12-31T06:47:48.832Z,31.73
2018-12-31T06:50:19.563Z,25.87
2018-12-31T06:52:50.879Z,28.13
2018-12-31T06:55:22.957Z,24.40
2018-12-31T06:57:52.787Z,23.17
2018-12-31T07:00:22.519Z,25.20
2018-12-31T07:02:52.129Z,28.53
2018-12-31T07:05:23.314Z,23.70
2018-12-31T07:07:52.995Z,24.47
2018-12-31T07:10:22.687Z,20.10
2018-12-31T07:12:52.379Z,23.97
2018-12-31T07:15:22.135Z,20.67
2018-12-31T07:17:51.808Z,21.57
2018-12-31T07:20:21.518Z,23.37
2018-12-31T07:22:51.267Z,22.10
2018-12-31T07:25:20.954Z,22.03
2018-12-31T07:27:50.811Z,24.55
2018-12-31T07:30:20.647Z,24.10
2018-12-31T07:32:50.276Z,23.47
2018-12-31T07:35:19.987Z,25.30
2018-12-31T07:37:49.728Z,24.50
2018-12-31T07:40:19.499Z,24.27
2018-12-31T07:42:50.106Z,23.80
2018-12-31T07:45:19.969Z,21.47
2018-12-31T07:47:49.652Z,21.03
2018-12-31T07:50:21.203Z,29.93
2018-12-31T07:52:50.952Z,26.57
2018-12-31T07:55:20.626Z,15.63
2018-12-31T07:57:50.331Z,15.90
2018-12-31T08:00:21.770Z,16.37
2018-12-31T08:02:51.602Z,18.10
2018-12-31T08:05:21.231Z,15.70
2018-12-31T08:07:50.951Z,17.67
2018-12-31T08:10:20.730Z,22.03
2018-12-31T08:12:53.060Z,15.30
2018-12-31T08:15:22.839Z,15.33
2018-12-31T08:17:52.476Z,17.40
2018-12-31T08:20:22.223Z,17.53
2018-12-31T08:22:51.871Z,19.83
2018-12-31T08:25:21.557Z,22.03
2018-12-31T08:27:51.113Z,18.07
2018-12-31T08:30:22.030Z,18.77
2018-12-31T08:32:52.825Z,20.60
2018-12-31T08:35:22.540Z,21.60
2018-12-31T08:37:52.173Z,20.87
2018-12-31T08:40:23.801Z,23.87
2018-12-31T08:42:54.763Z,19.93
2018-12-31T08:45:24.402Z,21.30
2018-12-31T08:47:55.612Z,20.97
2018-12-31T08:50:25.223Z,17.83
2018-12-31T08:52:56.790Z,19.70
2018-12-31T08:55:27.292Z,24.10
2018-12-31T08:57:59.713Z,18.90
2018-12-31T09:00:30.276Z,20.13
2018-12-31T09:02:59.921Z,16.07
2018-12-31T09:05:29.618Z,18.37
2018-12-31T09:07:59.339Z,18.15
2018-12-31T09:10:31.251Z,16.13
2018-12-31T09:13:04.090Z,18.90
2018-12-31T09:15:35.093Z,16.17
2018-12-31T09:18:04.607Z,14.43
2018-12-31T09:20:34.315Z,16.10
2018-12-31T09:23:04.057Z,15.10
2018-12-31T09:25:33.768Z,17.52
2018-12-31T09:28:04.983Z,21.70
2018-12-31T09:30:34.750Z,13.40
2018-12-31T09:33:06.530Z,14.40
2018-12-31T09:35:37.355Z,14.57
2018-12-31T09:38:08.035Z,13.63
2018-12-31T09:40:39.396Z,12.57
2018-12-31T09:43:10.188Z,11.90
2018-12-31T09:45:39.891Z,13.20
2018-12-31T09:48:09.544Z,10.17
2018-12-31T09:50:39.240Z,12.20
2018-12-31T09:53:09.147Z,12.10
2018-12-31T09:55:38.984Z,14.23
2018-12-31T09:58:08.999Z,11.10
2018-12-31T10:00:40.567Z,10.97
2018-12-31T10:03:10.285Z,11.60
2018-12-31T10:05:41.490Z,11.53
2018-12-31T10:08:12.469Z,11.93
2018-12-31T10:10:42.135Z,11.47
2018-12-31T10:13:11.955Z,10.80
2018-12-31T10:15:41.784Z,13.00
2018-12-31T10:18:14.201Z,10.15
2018-12-31T10:20:44.839Z,8.93
2018-12-31T10:23:14.613Z,11.87
2018-12-31T10:25:47.191Z,10.38
2018-12-31T10:28:16.863Z,10.10
2018-12-31T10:30:47.094Z,8.10
2018-12-31T10:33:17.896Z,12.00
2018-12-31T10:35:47.587Z,10.10
2018-12-31T10:38:18.572Z,10.90
2018-12-31T10:40:49.291Z,10.20
2018-12-31T10:43:19.940Z,10.70
2018-12-31T10:45:50.766Z,9.30
2018-12-31T10:48:20.479Z,10.20
2018-12-31T10:50:50.188Z,8.40
2018-12-31T10:53:19.850Z,10.00
2018-12-31T10:55:52.333Z,9.47
2018-12-31T10:58:22.224Z,21.63
2018-12-31T11:00:55.331Z,13.23
2018-12-31T11:03:24.896Z,12.63
2018-12-31T11:05:54.568Z,13.73
2018-12-31T11:08:26.120Z,11.90
2018-12-31T11:10:55.959Z,12.33
2018-12-31T11:13:28.935Z,13.30
2018-12-31T11:15:58.760Z,10.13
2018-12-31T11:18:28.367Z,12.90
2018-12-31T11:20:58.117Z,13.87
2018-12-31T11:23:27.965Z,13.73
2018-12-31T11:25:57.598Z,12.03
2018-12-31T11:28:27.251Z,12.50
2018-12-31T11:30:56.922Z,12.97
2018-12-31T11:33:26.547Z,12.13
2018-12-31T11:35:56.322Z,11.33
2018-12-31T11:38:26.056Z,9.93
2018-12-31T11:40:55.667Z,8.47
2018-12-31T11:43:25.395Z,12.60
2018-12-31T11:45:55.080Z,10.40
2018-12-31T11:48:24.791Z,11.57
2018-12-31T11:50:54.528Z,14.80
2018-12-31T11:53:24.227Z,13.30
2018-12-31T11:55:53.936Z,11.07
2018-12-31T11:58:26.727Z,12.63
2018-12-31T12:00:56.467Z,13.40
2018-12-31T12:03:26.139Z,11.40
2018-12-31T12:05:55.875Z,13.60
2018-12-31T12:08:25.547Z,13.77
2018-12-31T12:10:55.263Z,10.37
2018-12-31T12:13:25.008Z,11.65
2018-12-31T12:15:54.675Z,13.43
2018-12-31T12:18:24.735Z,11.83
2018-12-31T12:20:55.496Z,11.53
2018-12-31T12:23:25.070Z,11.00
2018-12-31T12:25:54.992Z,12.13
2018-12-31T12:28:25.084Z,11.80
2018-12-31T12:30:54.795Z,9.88
2018-12-31T12:33:24.324Z,10.83
2018-12-31T12:35:54.867Z,8.23
2018-12-31T12:38:24.536Z,9.77
2018-12-31T12:40:56.067Z,7.47
2018-12-31T12:43:25.720Z,9.10
2018-12-31T12:45:56.962Z,8.47
2018-12-31T12:48:27.104Z,7.70
2018-12-31T12:50:56.802Z,8.70
2018-12-31T12:53:26.867Z,8.57
2018-12-31T12:55:56.571Z,8.07
2018-12-31T12:58:26.492Z,7.23
2018-12-31T13:00:56.956Z,8.70
2018-12-31T13:03:28.784Z,10.50
2018-12-31T13:05:58.527Z,7.80
2018-12-31T13:08:28.209Z,7.17
2018-12-31T13:10:58.017Z,8.38
2018-12-31T13:13:28.656Z,7.70
2018-12-31T13:15:59.661Z,9.20
2018-12-31T13:18:29.391Z,8.60
2018-12-31T13:20:59.243Z,7.80
2018-12-31T13:23:30.732Z,7.90
2018-12-31T13:26:03.211Z,8.77
2018-12-31T13:28:32.799Z,9.20
2018-12-31T13:31:02.460Z,6.77
2018-12-31T13:33:32.263Z,7.07
2018-12-31T13:36:02.019Z,7.17
2018-12-31T13:38:33.301Z,6.40
2018-12-31T13:41:03.038Z,7.30
2018-12-31T13:43:32.707Z,9.00
2018-12-31T13:46:03.516Z,8.83
2018-12-31T13:48:33.186Z,7.47
2018-12-31T13:51:02.945Z,7.47
2018-12-31T13:53:34.463Z,7.27
2018-12-31T13:56:04.258Z,6.97
2018-12-31T13:58:34.275Z,10.03
2018-12-31T14:01:05.955Z,10.90
2018-12-31T14:03:35.686Z,8.83
2018-12-31T14:06:06.757Z,8.57
2018-12-31T14:08:36.806Z,7.30
2018-12-31T14:11:07.720Z,9.07
2018-12-31T14:13:38.322Z,8.13
2018-12-31T14:16:09.843Z,9.27
2018-12-31T14:18:40.148Z,9.77
2018-12-31T14:21:10.903Z,9.17
2018-12-31T14:23:40.840Z,8.70
2018-12-31T14:26:10.519Z,7.80
2018-12-31T14:28:40.355Z,8.10
2018-12-31T14:31:10.108Z,9.77
2018-12-31T14:33:39.665Z,8.33
2018-12-31T14:36:09.407Z,9.83
2018-12-31T14:38:40.391Z,9.47
2018-12-31T14:41:11.205Z,8.33
2018-12-31T14:43:40.969Z,8.67
2018-12-31T14:46:10.700Z,11.10
2018-12-31T14:48:40.461Z,10.33
2018-12-31T14:51:10.329Z,10.13
2018-12-31T14:53:40.595Z,9.30
2018-12-31T14:56:10.411Z,9.10
2018-12-31T14:58:40.148Z,10.50
2018-12-31T15:01:09.831Z,8.00
2018-12-31T15:03:41.764Z,9.40
2018-12-31T15:06:20.973Z,8.40
2018-12-31T15:08:50.707Z,9.90
2018-12-31T15:11:20.418Z,7.67
2018-12-31T15:13:50.318Z,10.37
2018-12-31T15:16:19.880Z,7.87
2018-12-31T15:18:49.880Z,7.63
2018-12-31T15:21:19.519Z,8.50
2018-12-31T15:23:49.200Z,10.50
2018-12-31T15:26:19.015Z,10.25
2018-12-31T15:28:48.749Z,9.70
2018-12-31T15:31:18.437Z,8.57
2018-12-31T15:33:48.139Z,7.70
2018-12-31T15:36:17.787Z,8.43
2018-12-31T15:38:47.355Z,7.30
2018-12-31T15:41:18.872Z,6.40
2018-12-31T15:43:48.655Z,7.70
2018-12-31T15:46:20.277Z,9.27
2018-12-31T15:48:49.627Z,8.90
2018-12-31T15:51:19.492Z,8.97
2018-12-31T15:53:49.245Z,9.10
2018-12-31T15:56:18.944Z,8.37
2018-12-31T15:58:48.558Z,7.03
2018-12-31T16:01:18.235Z,8.47
2018-12-31T16:03:47.954Z,9.07
2018-12-31T16:06:18.494Z,9.03
2018-12-31T16:08:48.179Z,9.53
2018-12-31T16:11:17.895Z,9.43
2018-12-31T16:13:47.641Z,11.50
2018-12-31T16:16:17.319Z,10.00
2018-12-31T16:18:47.020Z,11.23
2018-12-31T16:21:16.783Z,10.07
2018-12-31T16:23:46.446Z,11.13
2018-12-31T16:26:16.559Z,11.27
2018-12-31T16:28:46.307Z,12.80
2018-12-31T16:31:15.985Z,14.37
2018-12-31T16:33:45.760Z,11.97
2018-12-31T16:36:16.438Z,13.83
2018-12-31T16:38:46.339Z,15.30
2018-12-31T16:41:16.065Z,14.33
2018-12-31T16:43:45.820Z,14.53
2018-12-31T16:46:17.311Z,13.07
2018-12-31T16:48:47.023Z,14.70
2018-12-31T16:51:16.875Z,17.23
2018-12-31T16:53:46.551Z,14.50
2018-12-31T16:56:16.364Z,14.60
2018-12-31T16:58:48.564Z,14.57
2018-12-31T17:01:18.852Z,15.50
2018-12-31T17:03:49.311Z,20.02
2018-12-31T17:06:19.016Z,137.87
2018-12-31T17:08:48.923Z,37.17
2018-12-31T17:11:18.620Z,17.60
2018-12-31T17:13:49.125Z,17.37
2018-12-31T17:16:18.894Z,16.67
2018-12-31T17:18:48.575Z,16.12
2018-12-31T17:21:18.300Z,18.53
2018-12-31T17:23:48.127Z,17.27
2018-12-31T17:26:21.638Z,20.27
2018-12-31T17:28:51.435Z,16.80
2018-12-31T17:31:21.120Z,18.10
2018-12-31T17:33:52.514Z,17.97
2018-12-31T17:36:24.177Z,17.50
2018-12-31T17:38:55.551Z,18.05
2018-12-31T17:41:25.171Z,17.75
2018-12-31T17:43:57.647Z,20.92
2018-12-31T17:46:27.261Z,17.57
2018-12-31T17:48:57.003Z,18.87
2018-12-31T17:51:27.888Z,19.57
2018-12-31T17:53:59.843Z,20.23
2018-12-31T17:56:29.580Z,21.23
2018-12-31T17:58:59.419Z,16.90
2018-12-31T18:01:30.650Z,17.02
2018-12-31T18:04:00.404Z,20.23
2018-12-31T18:06:30.128Z,18.73
2018-12-31T18:08:59.963Z,20.40
2018-12-31T18:11:29.959Z,19.67
2018-12-31T18:13:59.659Z,16.50
2018-12-31T18:16:29.406Z,18.90
2018-12-31T18:18:59.044Z,17.62
2018-12-31T18:21:28.773Z,18.00
2018-12-31T18:24:00.683Z,17.60
2018-12-31T18:26:30.397Z,16.37
2018-12-31T18:29:00.243Z,18.20
2018-12-31T18:31:29.808Z,26.80
2018-12-31T18:33:59.627Z,21.87
2018-12-31T18:36:29.364Z,19.00
2018-12-31T18:38:59.044Z,16.53
2018-12-31T18:41:28.652Z,20.73
2018-12-31T18:43:58.278Z,21.02
2018-12-31T18:46:27.963Z,20.10
2018-12-31T18:48:57.780Z,19.37
2018-12-31T18:51:27.631Z,17.53
2018-12-31T18:53:57.303Z,20.70
2018-12-31T18:56:29.136Z,17.70
2018-12-31T18:58:59.202Z,20.73
2018-12-31T19:01:28.812Z,17.83
2018-12-31T19:03:59.007Z,20.27
2018-12-31T19:06:29.955Z,20.60
2018-12-31T19:08:59.684Z,19.27
2018-12-31T19:11:29.374Z,19.57
2018-12-31T19:14:00.665Z,17.92
2018-12-31T19:16:31.628Z,24.10
2018-12-31T19:19:01.365Z,19.13
2018-12-31T19:21:31.894Z,17.70
2018-12-31T19:24:02.812Z,17.17
2018-12-31T19:26:35.856Z,19.97
2018-12-31T19:29:05.651Z,21.57
2018-12-31T19:31:36.647Z,20.30
2018-12-31T19:34:08.155Z,16.63
2018-12-31T19:36:39.399Z,17.93
2018-12-31T19:39:09.119Z,18.30
2018-12-31T19:41:38.896Z,17.40
2018-12-31T19:44:09.772Z,21.63
2018-12-31T19:46:39.436Z,18.13
2018-12-31T19:49:09.223Z,22.80
2018-12-31T19:51:40.564Z,23.37
2018-12-31T19:54:11.639Z,21.60
2018-12-31T19:56:41.763Z,21.25
2018-12-31T19:59:12.108Z,18.00
2018-12-31T20:01:41.801Z,16.23
2018-12-31T20:04:11.504Z,15.47
2018-12-31T20:06:41.248Z,18.77
2018-12-31T20:09:11.024Z,18.70
2018-12-31T20:11:40.731Z,20.03
2018-12-31T20:14:10.486Z,22.17
2018-12-31T20:16:40.259Z,22.50
2018-12-31T20:19:09.972Z,23.73
2018-12-31T20:21:39.714Z,21.90
2018-12-31T20:24:09.387Z,20.63
2018-12-31T20:26:40.006Z,24.47
2018-12-31T20:29:09.931Z,19.17
2018-12-31T20:31:40.953Z,19.97
2018-12-31T20:34:11.892Z,19.00
2018-12-31T20:36:42.651Z,17.87
2018-12-31T20:39:13.387Z,20.20
2018-12-31T20:41:45.688Z,16.33
2018-12-31T20:44:15.502Z,16.33
2018-12-31T20:46:45.176Z,18.47
2018-12-31T20:49:15.931Z,18.03
2018-12-31T20:51:47.991Z,16.53
2018-12-31T20:54:17.790Z,15.83
2018-12-31T20:56:47.755Z,17.63
2018-12-31T20:59:17.431Z,16.30
2018-12-31T21:01:48.184Z,17.63
2018-12-31T21:04:17.859Z,17.80
2018-12-31T21:06:47.608Z,19.97
2018-12-31T21:09:17.379Z,16.70
2018-12-31T21:11:47.196Z,17.90
2018-12-31T21:14:16.923Z,19.17
2018-12-31T21:16:46.611Z,17.73
2018-12-31T21:19:16.236Z,18.23
2018-12-31T21:21:46.799Z,40.60
2018-12-31T21:24:16.474Z,21.23
2018-12-31T21:26:46.276Z,22.27
2018-12-31T21:29:16.052Z,24.30
2018-12-31T21:31:46.591Z,22.87
2018-12-31T21:34:16.628Z,26.67
2018-12-31T21:36:46.371Z,24.10
2018-12-31T21:39:16.059Z,26.00
2018-12-31T21:41:48.916Z,24.33
2018-12-31T21:44:19.790Z,25.77
2018-12-31T21:46:50.103Z,23.57
2018-12-31T21:49:19.808Z,26.68
2018-12-31T21:51:49.595Z,27.07
2018-12-31T21:54:21.543Z,25.60
2018-12-31T21:56:51.191Z,27.90
2018-12-31T21:59:21.026Z,25.43
2018-12-31T22:01:50.816Z,28.07
2018-12-31T22:04:21.522Z,28.13
2018-12-31T22:06:52.495Z,26.20
2018-12-31T22:09:24.040Z,29.67
2018-12-31T22:11:53.765Z,23.83
2018-12-31T22:14:25.291Z,27.43
2018-12-31T22:16:55.119Z,24.57
2018-12-31T22:19:24.739Z,24.23
2018-12-31T22:21:54.879Z,27.32
2018-12-31T22:24:24.554Z,25.15
2018-12-31T22:26:54.272Z,30.90
2018-12-31T22:29:25.011Z,29.47
2018-12-31T22:31:55.811Z,23.53
2018-12-31T22:34:27.103Z,24.00
2018-12-31T22:36:57.935Z,24.43
2018-12-31T22:39:28.632Z,23.27
2018-12-31T22:41:58.363Z,21.97
2018-12-31T22:44:28.099Z,25.00
2018-12-31T22:46:58.715Z,21.93
2018-12-31T22:49:28.512Z,25.63
2018-12-31T22:52:01.427Z,23.40
2018-12-31T22:54:31.208Z,25.00
2018-12-31T22:57:02.520Z,29.87
2018-12-31T22:59:32.291Z,25.67
2018-12-31T23:02:01.980Z,31.07
2018-12-31T23:04:31.787Z,37.03
2018-12-31T23:07:05.987Z,101.73
2018-12-31T23:09:41.337Z,76.70
2018-12-31T23:12:10.343Z,148.33
2018-12-31T23:14:41.199Z,137.27
2018-12-31T23:17:14.350Z,107.37
2018-12-31T23:19:45.079Z,90.30
2018-12-31T23:22:16.283Z,78.10
2018-12-31T23:24:47.183Z,65.67
2018-12-31T23:27:17.922Z,64.50
2018-12-31T23:29:48.156Z,68.27
2018-12-31T23:32:17.982Z,56.60
2018-12-31T23:34:47.765Z,63.33
2018-12-31T23:37:19.215Z,60.52
2018-12-31T23:39:49.032Z,62.83
2018-12-31T23:42:19.145Z,65.57
2018-12-31T23:44:53.006Z,69.12
2018-12-31T23:47:20.443Z,84.67
2018-12-31T23:49:50.132Z,103.83
2018-12-31T23:52:19.871Z,116.50
2018-12-31T23:54:51.108Z,89.53
2018-12-31T23:57:22.587Z,84.53
2018-12-31T23:59:52.355Z,84.03
